createdAt,value
2019-02-14T00:00:39.091Z,11.33
2019-02-14T00:03:27.503Z,16.60
2019-02-14T00:06:16.619Z,12.65
2019-02-14T00:09:06.835Z,22.25
2019-02-14T00:11:55.419Z,23.10
2019-02-14T00:14:44.239Z,23.55
2019-02-14T00:17:32.917Z,57.88
2019-02-14T00:20:21.338Z,59.40
2019-02-14T00:23:09.919Z,28.07
2019-02-14T00:25:58.693Z,15.68
2019-02-14T00:28:47.352Z,20.62
2019-02-14T00:31:36.368Z,42.30
2019-02-14T00:34:26.401Z,40.67
2019-02-14T00:37:15.616Z,22.62
2019-02-14T00:40:04.563Z,15.25
2019-02-14T00:42:53.486Z,16.05
2019-02-14T00:45:42.723Z,16.48
2019-02-14T00:48:31.386Z,20.00
2019-02-14T00:51:20.731Z,16.40
2019-02-14T00:54:09.627Z,33.53
2019-02-14T00:56:58.494Z,17.20
2019-02-14T00:59:47.739Z,10.53
2019-02-14T01:02:36.855Z,11.45
2019-02-14T01:05:33.107Z,10.70
2019-02-14T01:08:15.434Z,15.90
2019-02-14T01:11:04.001Z,12.43
2019-02-14T01:13:52.636Z,11.63
2019-02-14T01:16:41.287Z,11.43
2019-02-14T01:19:29.598Z,9.07
2019-02-14T01:22:19.232Z,15.35
2019-02-14T01:25:07.495Z,9.85
2019-02-14T01:27:56.564Z,9.50
2019-02-14T01:30:45.739Z,12.95
2019-02-14T01:33:34.475Z,11.30
2019-02-14T01:36:23.968Z,10.05
2019-02-14T01:39:12.389Z,13.78
2019-02-14T01:42:01.970Z,12.03
2019-02-14T01:44:50.537Z,9.45
2019-02-14T01:47:39.499Z,12.45
2019-02-14T01:50:27.621Z,7.80
2019-02-14T01:53:16.161Z,8.65
2019-02-14T01:56:05.118Z,8.80
2019-02-14T01:58:54.472Z,11.73
2019-02-14T02:01:43.319Z,15.32
2019-02-14T02:04:32.337Z,13.77
2019-02-14T02:07:21.411Z,11.90
2019-02-14T02:10:11.552Z,10.30
2019-02-14T02:13:00.439Z,10.60
2019-02-14T02:15:48.995Z,11.57
2019-02-14T02:18:39.436Z,9.63
2019-02-14T02:21:28.159Z,9.10
2019-02-14T02:24:16.745Z,9.98
2019-02-14T02:27:05.120Z,10.05
2019-02-14T02:29:54.549Z,10.08
2019-02-14T02:32:43.579Z,10.48
2019-02-14T02:35:32.577Z,7.92
2019-02-14T02:38:21.404Z,7.87
2019-02-14T02:41:10.334Z,8.43
2019-02-14T02:43:59.009Z,9.40
2019-02-14T02:46:48.006Z,7.25
2019-02-14T02:49:36.712Z,8.63
2019-02-14T02:52:25.465Z,10.03
2019-02-14T02:55:14.056Z,8.95
2019-02-14T02:58:02.842Z,11.53
2019-02-14T03:00:52.213Z,9.90
2019-02-14T03:03:40.767Z,8.93
2019-02-14T03:06:29.897Z,9.63
2019-02-14T03:09:18.554Z,10.00
2019-02-14T03:12:07.132Z,10.93
2019-02-14T03:14:55.455Z,8.33
2019-02-14T03:17:44.076Z,12.18
2019-02-14T03:20:33.091Z,9.40
2019-02-14T03:23:22.218Z,12.82
2019-02-14T03:26:10.775Z,9.20
2019-02-14T03:28:59.398Z,8.08
2019-02-14T03:31:47.730Z,8.50
2019-02-14T03:34:36.394Z,9.70
2019-02-14T03:37:25.514Z,10.32
2019-02-14T03:40:14.594Z,11.85
2019-02-14T03:43:03.385Z,9.78
2019-02-14T03:45:51.527Z,10.28
2019-02-14T03:48:40.468Z,8.53
2019-02-14T03:51:29.395Z,13.53
2019-02-14T03:54:18.312Z,8.30
2019-02-14T03:57:06.670Z,13.75
2019-02-14T03:59:54.932Z,9.58
2019-02-14T04:02:43.821Z,10.00
2019-02-14T04:05:32.064Z,11.97
2019-02-14T04:08:20.926Z,10.90
2019-02-14T04:11:09.892Z,9.10
2019-02-14T04:13:58.862Z,9.50
2019-02-14T04:16:47.664Z,9.87
2019-02-14T04:19:36.867Z,12.15
2019-02-14T04:22:26.010Z,11.63
2019-02-14T04:25:15.108Z,11.15
2019-02-14T04:28:03.546Z,9.20
2019-02-14T04:30:52.118Z,9.55
2019-02-14T04:33:40.583Z,13.72
2019-02-14T04:36:35.885Z,10.23
2019-02-14T04:39:19.145Z,13.08
2019-02-14T04:42:07.477Z,10.55
2019-02-14T04:44:56.294Z,9.48
2019-02-14T04:47:45.410Z,10.70
2019-02-14T04:50:34.210Z,11.45
2019-02-14T04:53:23.735Z,13.00
2019-02-14T04:56:12.996Z,12.78
2019-02-14T04:59:01.419Z,12.18
2019-02-14T05:01:49.940Z,12.15
2019-02-14T05:04:38.156Z,13.05
2019-02-14T05:07:26.512Z,11.80
2019-02-14T05:10:15.136Z,12.93
2019-02-14T05:13:03.891Z,12.53
2019-02-14T05:15:52.728Z,10.95
2019-02-14T05:18:41.826Z,10.68
2019-02-14T05:21:30.292Z,11.30
2019-02-14T05:24:18.854Z,13.18
2019-02-14T05:27:07.382Z,10.82
2019-02-14T05:29:56.114Z,14.05
2019-02-14T05:32:45.289Z,12.75
2019-02-14T05:35:34.190Z,13.28
2019-02-14T05:38:22.860Z,11.88
2019-02-14T05:41:11.049Z,12.60
2019-02-14T05:43:59.697Z,13.38
2019-02-14T05:46:48.458Z,14.10
2019-02-14T05:49:37.539Z,12.03
2019-02-14T05:52:26.532Z,14.80
2019-02-14T05:55:15.173Z,13.15
2019-02-14T05:58:03.799Z,12.10
2019-02-14T06:00:52.083Z,12.45
2019-02-14T06:03:41.154Z,10.58
2019-02-14T06:06:30.065Z,12.80
2019-02-14T06:09:19.069Z,12.78
2019-02-14T06:12:07.635Z,11.78
2019-02-14T06:14:55.987Z,16.55
2019-02-14T06:17:45.236Z,14.13
2019-02-14T06:20:34.464Z,10.90
2019-02-14T06:23:23.178Z,9.05
2019-02-14T06:26:12.017Z,10.93
2019-02-14T06:29:00.178Z,11.15
2019-02-14T06:31:49.062Z,11.30
2019-02-14T06:34:37.512Z,8.55
2019-02-14T06:37:26.552Z,10.85
2019-02-14T06:40:15.446Z,14.10
2019-02-14T06:43:04.326Z,11.00
2019-02-14T06:45:52.665Z,10.90
2019-02-14T06:48:41.244Z,13.05
2019-02-14T06:51:30.376Z,12.43
2019-02-14T06:54:19.169Z,11.25
2019-02-14T06:57:07.864Z,12.93
2019-02-14T06:59:56.887Z,9.55
2019-02-14T07:02:45.870Z,9.70
2019-02-14T07:05:34.458Z,9.60
2019-02-14T07:08:22.807Z,9.00
2019-02-14T07:11:11.517Z,8.23
2019-02-14T07:13:59.951Z,9.33
2019-02-14T07:16:48.744Z,10.32
2019-02-14T07:19:37.561Z,11.65
2019-02-14T07:22:25.702Z,11.93
2019-02-14T07:25:14.423Z,11.28
2019-02-14T07:28:03.603Z,8.80
2019-02-14T07:30:51.834Z,9.75
2019-02-14T07:33:40.901Z,11.30
2019-02-14T07:36:30.079Z,8.00
2019-02-14T07:39:18.922Z,11.00
2019-02-14T07:42:07.999Z,8.63
2019-02-14T07:44:57.350Z,13.50
2019-02-14T07:47:45.885Z,8.20
2019-02-14T07:50:34.480Z,10.13
2019-02-14T07:53:23.291Z,10.23
2019-02-14T07:56:12.419Z,11.68
2019-02-14T07:59:01.523Z,10.48
2019-02-14T08:01:50.243Z,8.50
2019-02-14T08:04:39.363Z,10.80
2019-02-14T08:07:35.464Z,9.10
2019-02-14T08:10:17.611Z,11.90
2019-02-14T08:13:05.945Z,9.05
2019-02-14T08:15:54.916Z,10.55
2019-02-14T08:18:43.614Z,8.88
2019-02-14T08:21:32.196Z,9.43
2019-02-14T08:24:20.998Z,9.78
2019-02-14T08:27:09.762Z,10.15
2019-02-14T08:29:58.696Z,9.30
2019-02-14T08:32:47.546Z,8.23
2019-02-14T08:35:36.229Z,8.70
2019-02-14T08:38:25.055Z,7.83
2019-02-14T08:41:13.946Z,8.03
2019-02-14T08:44:02.643Z,7.40
2019-02-14T08:46:51.176Z,5.87
2019-02-14T08:49:39.442Z,8.03
2019-02-14T08:52:28.037Z,10.63
2019-02-14T08:55:17.012Z,9.95
2019-02-14T08:58:05.890Z,6.03
2019-02-14T09:00:54.306Z,10.23
2019-02-14T09:03:43.402Z,6.37
2019-02-14T09:06:32.189Z,6.60
2019-02-14T09:09:20.816Z,7.50
2019-02-14T09:12:09.936Z,7.17
2019-02-14T09:14:58.928Z,7.42
2019-02-14T09:17:47.864Z,10.43
2019-02-14T09:20:36.739Z,5.20
2019-02-14T09:23:25.809Z,7.60
2019-02-14T09:26:14.525Z,6.15
2019-02-14T09:29:03.338Z,6.20
2019-02-14T09:31:57.232Z,7.22
2019-02-14T09:34:46.502Z,7.33
2019-02-14T09:37:36.330Z,5.73
2019-02-14T09:40:25.448Z,6.87
2019-02-14T09:43:14.307Z,6.00
2019-02-14T09:46:02.979Z,11.40
2019-02-14T09:48:51.085Z,10.13
2019-02-14T09:51:39.868Z,5.93
2019-02-14T09:54:28.384Z,4.97
2019-02-14T09:57:17.069Z,7.75
2019-02-14T10:00:07.968Z,12.68
2019-02-14T10:02:56.802Z,4.78
2019-02-14T10:05:45.678Z,4.85
2019-02-14T10:08:34.256Z,8.60
2019-02-14T10:11:23.117Z,5.37
2019-02-14T10:14:11.969Z,6.30
2019-02-14T10:17:01.074Z,13.93
2019-02-14T10:19:50.138Z,5.45
2019-02-14T10:22:38.637Z,4.75
2019-02-14T10:25:27.707Z,5.40
2019-02-14T10:28:16.012Z,5.28
2019-02-14T10:31:04.691Z,6.97
2019-02-14T10:33:53.065Z,4.20
2019-02-14T10:36:41.783Z,7.10
2019-02-14T10:39:32.623Z,6.53
2019-02-14T10:42:21.540Z,7.17
2019-02-14T10:45:12.826Z,5.70
2019-02-14T10:48:01.526Z,7.97
2019-02-14T10:50:49.614Z,4.10
2019-02-14T10:53:37.995Z,9.85
2019-02-14T10:56:26.677Z,6.97
2019-02-14T10:59:15.499Z,6.58
2019-02-14T11:02:05.481Z,5.83
2019-02-14T11:04:54.566Z,7.03
2019-02-14T11:07:43.710Z,6.57
2019-02-14T11:10:32.849Z,7.60
2019-02-14T11:13:23.414Z,7.45
2019-02-14T11:16:12.396Z,9.33
2019-02-14T11:19:01.683Z,6.55
2019-02-14T11:21:50.521Z,4.83
2019-02-14T11:24:39.153Z,5.25
2019-02-14T11:27:27.727Z,5.28
2019-02-14T11:30:16.724Z,6.03
2019-02-14T11:33:05.936Z,4.45
2019-02-14T11:35:55.019Z,5.40
2019-02-14T11:38:43.674Z,5.08
2019-02-14T11:41:32.575Z,7.10
2019-02-14T11:44:21.424Z,3.30
2019-02-14T11:47:10.111Z,5.78
2019-02-14T11:49:59.499Z,3.22
2019-02-14T11:52:48.689Z,4.00
2019-02-14T11:55:39.368Z,4.12
2019-02-14T11:58:28.242Z,3.17
2019-02-14T12:01:16.947Z,4.37
2019-02-14T12:04:06.349Z,4.12
2019-02-14T12:06:54.909Z,6.83
2019-02-14T12:09:43.453Z,4.10
2019-02-14T12:12:32.598Z,4.47
2019-02-14T12:15:23.134Z,5.20
2019-02-14T12:18:11.123Z,3.57
2019-02-14T12:20:59.510Z,4.50
2019-02-14T12:23:48.236Z,3.20
2019-02-14T12:26:36.855Z,2.57
2019-02-14T12:29:25.719Z,2.60
2019-02-14T12:32:14.200Z,2.25
2019-02-14T12:35:03.779Z,2.10
2019-02-14T12:37:53.021Z,3.77
2019-02-14T12:40:41.447Z,5.20
2019-02-14T12:43:30.175Z,1.53
2019-02-14T12:46:18.867Z,2.40
2019-02-14T12:49:07.602Z,2.87
2019-02-14T12:51:56.532Z,2.80
2019-02-14T12:54:45.428Z,2.37
2019-02-14T12:57:35.409Z,5.30
2019-02-14T13:00:24.324Z,5.20
2019-02-14T13:03:12.858Z,4.80
2019-02-14T13:06:01.370Z,8.50
2019-02-14T13:08:50.347Z,5.17
2019-02-14T13:11:39.354Z,4.97
2019-02-14T13:14:28.236Z,4.47
2019-02-14T13:17:17.126Z,7.90
2019-02-14T13:20:06.269Z,5.53
2019-02-14T13:22:54.534Z,7.30
2019-02-14T13:25:43.475Z,4.10
2019-02-14T13:28:32.887Z,5.07
2019-02-14T13:31:31.277Z,4.30
2019-02-14T13:34:12.120Z,3.23
2019-02-14T13:37:02.105Z,6.90
2019-02-14T13:39:51.482Z,3.37
2019-02-14T13:42:39.902Z,4.30
2019-02-14T13:45:28.550Z,3.50
2019-02-14T13:48:16.854Z,2.73
2019-02-14T13:51:05.515Z,4.00
2019-02-14T13:53:53.723Z,2.70
2019-02-14T13:56:42.938Z,3.53
2019-02-14T13:59:32.243Z,5.23
2019-02-14T14:02:20.905Z,3.40
2019-02-14T14:05:09.755Z,5.93
2019-02-14T14:07:58.679Z,4.03
2019-02-14T14:10:47.464Z,3.47
2019-02-14T14:13:36.686Z,5.33
2019-02-14T14:16:25.877Z,7.93
2019-02-14T14:19:14.444Z,4.40
2019-02-14T14:22:03.499Z,5.50
2019-02-14T14:24:52.083Z,7.93
2019-02-14T14:27:40.569Z,3.30
2019-02-14T14:33:16.899Z,6.13
2019-02-14T14:36:05.963Z,4.00
2019-02-14T14:38:54.971Z,4.60
2019-02-14T14:41:43.232Z,5.35
2019-02-14T14:44:46.497Z,5.83
2019-02-14T14:47:35.428Z,4.75
2019-02-14T14:50:24.565Z,4.10
2019-02-14T14:53:12.921Z,9.20
2019-02-14T14:56:01.902Z,6.63
2019-02-14T14:58:51.136Z,4.70
2019-02-14T15:01:39.715Z,5.47
2019-02-14T15:04:28.866Z,6.80
2019-02-14T15:07:18.035Z,4.60
2019-02-14T15:10:06.632Z,3.77
2019-02-14T15:12:55.876Z,4.53
2019-02-14T15:15:44.741Z,4.00
2019-02-14T15:18:33.793Z,4.33
2019-02-14T15:21:22.469Z,3.33
2019-02-14T15:24:10.820Z,5.08
2019-02-14T15:26:59.825Z,3.70
2019-02-14T15:29:49.167Z,4.75
2019-02-14T15:32:37.410Z,3.57
2019-02-14T15:35:26.587Z,4.17
2019-02-14T15:38:15.425Z,9.10
2019-02-14T15:41:04.180Z,6.35
2019-02-14T15:43:52.940Z,12.25
2019-02-14T15:46:41.928Z,8.20
2019-02-14T15:49:30.504Z,7.37
2019-02-14T15:52:19.614Z,5.60
2019-02-14T15:55:08.385Z,6.47
2019-02-14T15:57:57.475Z,4.45
2019-02-14T16:00:46.517Z,6.17
2019-02-14T16:03:35.218Z,2.87
2019-02-14T16:06:26.069Z,4.40
2019-02-14T16:09:16.512Z,4.37
2019-02-14T16:12:05.403Z,3.90
2019-02-14T16:14:54.099Z,4.60
2019-02-14T16:17:43.171Z,5.25
2019-02-14T16:20:31.885Z,3.05
2019-02-14T16:23:20.787Z,4.17
2019-02-14T16:26:09.846Z,3.83
2019-02-14T16:29:01.055Z,4.25
2019-02-14T16:31:48.548Z,4.58
2019-02-14T16:34:37.756Z,4.97
2019-02-14T16:37:26.992Z,3.50
2019-02-14T16:40:15.486Z,3.20
2019-02-14T16:43:04.406Z,4.55
2019-02-14T16:45:53.434Z,5.30
2019-02-14T16:48:42.651Z,5.17
2019-02-14T16:51:31.582Z,3.52
2019-02-14T16:54:20.405Z,4.75
2019-02-14T16:57:09.292Z,3.65
2019-02-14T16:59:57.981Z,3.33
2019-02-14T17:02:47.011Z,8.10
2019-02-14T17:05:36.249Z,4.90
2019-02-14T17:08:24.581Z,6.10
2019-02-14T17:11:13.246Z,12.20
2019-02-14T17:14:01.832Z,13.78
2019-02-14T17:16:50.838Z,15.35
2019-02-14T17:19:39.819Z,12.70
2019-02-14T17:22:28.201Z,13.33
2019-02-14T17:25:17.392Z,24.95
2019-02-14T17:28:06.635Z,20.62
2019-02-14T17:30:55.681Z,13.40
2019-02-14T17:33:44.662Z,16.00
2019-02-14T17:36:33.393Z,12.33
2019-02-14T17:39:22.278Z,15.90
2019-02-14T17:42:11.374Z,22.77
2019-02-14T17:45:00.524Z,17.95
2019-02-14T17:47:49.750Z,11.48
2019-02-14T17:50:38.262Z,15.63
2019-02-14T17:53:26.855Z,10.58
2019-02-14T17:56:16.005Z,11.30
2019-02-14T17:59:04.800Z,12.05
2019-02-14T18:01:53.267Z,12.00
2019-02-14T18:04:42.212Z,24.23
2019-02-14T18:07:31.219Z,14.27
2019-02-14T18:10:20.620Z,18.05
2019-02-14T18:13:09.795Z,18.23
2019-02-14T18:15:59.452Z,11.93
2019-02-14T18:18:49.354Z,14.43
2019-02-14T18:21:38.676Z,12.82
2019-02-14T18:24:27.890Z,16.60
2019-02-14T18:27:16.440Z,12.93
2019-02-14T18:30:06.435Z,15.90
2019-02-14T18:32:55.312Z,10.53
2019-02-14T18:35:43.990Z,12.55
2019-02-14T18:38:33.238Z,13.83
2019-02-14T18:41:22.153Z,17.20
2019-02-14T18:44:11.280Z,12.50
2019-02-14T18:47:00.070Z,12.40
2019-02-14T18:49:49.433Z,16.93
2019-02-14T18:52:39.203Z,19.57
2019-02-14T18:55:28.620Z,16.37
2019-02-14T18:58:26.002Z,21.02
2019-02-14T19:01:08.123Z,19.80
2019-02-14T19:03:57.129Z,14.55
2019-02-14T19:06:47.172Z,17.60
2019-02-14T19:09:36.386Z,14.60
2019-02-14T19:12:25.936Z,19.07
2019-02-14T19:15:15.125Z,15.88
2019-02-14T19:18:04.085Z,20.95
2019-02-14T19:20:53.258Z,19.00
2019-02-14T19:23:42.366Z,18.37
2019-02-14T19:26:31.382Z,21.35
2019-02-14T19:29:20.951Z,20.20
2019-02-14T19:32:10.338Z,15.90
2019-02-14T19:34:59.416Z,20.85
2019-02-14T19:37:48.369Z,24.70
2019-02-14T19:40:36.831Z,21.90
2019-02-14T19:43:25.802Z,23.02
2019-02-14T19:46:14.202Z,25.90
2019-02-14T19:49:02.923Z,28.65
2019-02-14T19:51:52.072Z,27.27
2019-02-14T19:54:41.296Z,27.35
2019-02-14T19:57:30.232Z,24.90
2019-02-14T20:00:19.278Z,22.67
2019-02-14T20:03:08.019Z,24.25
2019-02-14T20:05:57.067Z,29.77
2019-02-14T20:08:45.952Z,28.38
2019-02-14T20:11:37.164Z,21.93
2019-02-14T20:14:25.922Z,25.45
2019-02-14T20:17:15.441Z,27.67
2019-02-14T20:20:04.159Z,30.88
2019-02-14T20:22:52.825Z,26.60
2019-02-14T20:25:41.315Z,23.42
2019-02-14T20:28:30.487Z,25.77
2019-02-14T20:31:19.627Z,23.87
2019-02-14T20:34:08.464Z,21.93
2019-02-14T20:36:57.484Z,32.87
2019-02-14T20:39:46.555Z,25.62
2019-02-14T20:42:35.824Z,23.65
2019-02-14T20:45:25.159Z,25.70
2019-02-14T20:48:15.128Z,21.30
2019-02-14T20:51:03.992Z,24.23
2019-02-14T20:53:53.317Z,26.80
2019-02-14T20:56:42.048Z,17.07
2019-02-14T20:59:31.336Z,16.85
2019-02-14T21:02:19.822Z,18.57
2019-02-14T21:05:08.912Z,21.85
2019-02-14T21:07:58.190Z,16.65
2019-02-14T21:10:47.138Z,14.90
2019-02-14T21:13:35.910Z,19.23
2019-02-14T21:16:25.088Z,15.95
2019-02-14T21:19:14.169Z,15.32
2019-02-14T21:22:04.481Z,14.33
2019-02-14T21:24:53.019Z,15.90
2019-02-14T21:27:42.171Z,13.18
2019-02-14T21:30:35.045Z,15.95
2019-02-14T21:33:22.482Z,14.93
2019-02-14T21:36:11.420Z,14.83
2019-02-14T21:39:01.479Z,14.90
2019-02-14T21:41:50.082Z,13.43
2019-02-14T21:44:39.449Z,12.40
2019-02-14T21:47:27.902Z,14.50
2019-02-14T21:50:16.835Z,12.05
2019-02-14T21:53:06.128Z,12.33
2019-02-14T21:55:55.206Z,15.68
2019-02-14T21:58:43.933Z,18.20
2019-02-14T22:01:32.850Z,10.93
2019-02-14T22:04:21.893Z,11.70
2019-02-14T22:07:10.873Z,12.40
2019-02-14T22:09:59.948Z,13.13
2019-02-14T22:12:48.916Z,9.30
2019-02-14T22:15:37.765Z,13.43
2019-02-14T22:18:26.229Z,10.98
2019-02-14T22:21:14.885Z,10.20
2019-02-14T22:24:04.052Z,12.10
2019-02-14T22:26:52.729Z,9.60
2019-02-14T22:29:41.152Z,9.50
2019-02-14T22:32:29.829Z,12.75
2019-02-14T22:35:18.576Z,9.38
2019-02-14T22:38:07.911Z,11.45
2019-02-14T22:40:57.234Z,9.38
2019-02-14T22:43:46.288Z,10.10
2019-02-14T22:46:34.821Z,9.98
2019-02-14T22:49:23.728Z,10.25
2019-02-14T22:52:12.791Z,10.23
2019-02-14T22:55:01.125Z,15.23
2019-02-14T22:57:50.029Z,16.35
2019-02-14T23:00:42.633Z,10.40
2019-02-14T23:03:30.753Z,9.13
2019-02-14T23:06:19.215Z,9.67
2019-02-14T23:09:10.207Z,11.00
2019-02-14T23:11:58.775Z,10.32
2019-02-14T23:14:47.992Z,9.55
2019-02-14T23:17:38.930Z,9.33
2019-02-14T23:20:27.658Z,11.55
2019-02-14T23:23:16.236Z,9.35
2019-02-14T23:26:05.250Z,10.72
2019-02-14T23:28:54.033Z,8.50
2019-02-14T23:31:43.197Z,9.50
2019-02-14T23:34:31.573Z,11.08
2019-02-14T23:37:20.007Z,10.80
2019-02-14T23:40:09.371Z,8.20
2019-02-14T23:43:04.446Z,10.95
2019-02-14T23:45:48.455Z,15.98
2019-02-14T23:48:36.953Z,20.55
2019-02-14T23:51:25.540Z,15.50
2019-02-14T23:54:13.821Z,18.80
2019-02-14T23:57:03.019Z,67.15
2019-02-14T23:59:51.133Z,52.53
